Flight Track Log - Related Links

Times and Time Zones

All times are in EDT time to prevent confusion due to time zone crossing. See the EJM214 flight status page for this flight to view local times or setup timezone preferences in your user account.

Time Position Orientation Groundspeed Altitude Reporting Facility
EDT Latitude Longitude Course Direction KTS MPH feet Rate Location/Type
Wed 02:42:51 PM 43.1717 -89.3708 299° West 242 278 2,800  Level Minneapolis Center
Wed 02:43:53 PM 43.2097 -89.4531 302° West 265 305 7,600 3,435 Climbing Minneapolis Center
Wed 02:44:55 PM 43.2478 -89.5544 297° West 281 323 9,900 1,887 Climbing Minneapolis Center
Wed 02:45:57 PM 43.2911 -89.6686 298° West 320 368 11,500 1,016 Climbing Minneapolis Center
Wed 02:46:59 PM 43.3397 -89.7958 298° West 356 410 12,000 290 Climbing Minneapolis Center
Wed 02:48:00 PM 43.3354 -89.8407 299° West  Level FlightAware Approximate
Wed 02:48:01 PM 43.3875 -89.9231 297° West 360 414 12,100  Level Minneapolis Center
Wed 02:49:11 PM 43.4325 -90.0472 297° West 362 417 11,900 -91 Descending Chicago Center
Wed 02:50:13 PM 43.4872 -90.1925 297° West 358 412 11,900 48 Level Chicago Center
Wed 02:51:15 PM 43.5267 -90.2986 297° West 359 413 12,000 48 Climbing Chicago Center
Wed 02:52:17 PM 43.5808 -90.4447 297° West 360 414 12,000 -48 Level Chicago Center
Wed 02:53:19 PM 43.6250 -90.5642 297° West 356 410 11,900 -769 Descending Chicago Center
Wed 02:54:14 PM 43.6583 -90.6739 293° West 326 375 10,500 -1,538 Descending Minneapolis Center
Wed 02:55:16 PM 43.6558 -90.7900 268° West 286 329 8,900 -1,500 Descending Minneapolis Center
Wed 02:56:18 PM 43.6536 -90.8994 268° West 274 315 7,400 -1,452 Descending Minneapolis Center
Wed 02:57:20 PM 43.6511 -91.0019 268° West 277 319 5,900 -1,500 Descending Minneapolis Center
Wed 02:58:22 PM 43.6489 -91.1100 268° West 270 311 4,300 -919 Descending Minneapolis Center
Wed 02:59:24 PM 43.6461 -91.2072 268° West 248 285 4,000 -672 Descending Minneapolis Center
Wed 03:00:27 PM 43.6822 -91.2572 315° West 207 238 2,900 -720 Descending Minneapolis Center
Wed 03:01:29 PM 43.7450 -91.2606 358° North 209 241 2,500 -387 Descending Minneapolis Center
Wed 03:03:00 PM 43.8667 -91.2500 336° Northwest  Level FlightAware Approximate
Wed 03:10:00 PM 43.8793 -91.2566 336° Northwest  Level Estimated

Login

Don't have an account? Register now (free) for customized features, flight alerts, and more!